createdAt,value
2023-04-15T00:02:26.289Z,99355.47
2023-04-15T00:05:35.015Z,99353.59
2023-04-15T00:08:43.084Z,99356.28
2023-04-15T00:11:58.092Z,99366.06
2023-04-15T00:15:06.084Z,99367.38
2023-04-15T00:18:14.791Z,99365.50
2023-04-15T00:21:23.061Z,99357.22
2023-04-15T00:24:38.058Z,99361.19
2023-04-15T00:27:53.060Z,99366.00
2023-04-15T00:31:02.173Z,99361.72
2023-04-15T00:34:17.092Z,99364.09
2023-04-15T00:37:32.091Z,99362.44
2023-04-15T00:40:48.092Z,99362.44
2023-04-15T00:43:56.758Z,99359.53
2023-04-15T00:47:06.061Z,99357.12
2023-04-15T00:50:21.063Z,99359.78
2023-04-15T00:53:29.695Z,99353.91
2023-04-15T00:56:42.086Z,99350.75
2023-04-15T01:00:05.058Z,99338.06
2023-04-15T01:03:20.245Z,99355.56
2023-04-15T01:06:29.083Z,99355.00
2023-04-15T01:09:44.064Z,99348.59
2023-04-15T01:12:53.044Z,99343.56
2023-04-15T01:16:01.934Z,99347.06
2023-04-15T01:19:11.083Z,99332.19
2023-04-15T01:22:27.078Z,99327.69
2023-04-15T01:25:39.061Z,99327.34
2023-04-15T01:28:54.100Z,99336.25
2023-04-15T01:31:56.522Z,99334.69
2023-04-15T01:35:11.094Z,99346.34
2023-04-15T01:38:13.330Z,99354.31
2023-04-15T01:41:32.093Z,99350.31
2023-04-15T01:44:40.078Z,99342.59
2023-04-15T01:47:48.649Z,99351.13
2023-04-15T01:51:03.056Z,99354.28
2023-04-15T01:54:11.652Z,99351.03
2023-04-15T01:57:26.093Z,99353.69
2023-04-15T02:00:41.369Z,99336.75
2023-04-15T02:03:57.131Z,99341.19
2023-04-15T02:07:05.646Z,99355.25
2023-04-15T02:10:14.098Z,99365.16
2023-04-15T02:13:22.693Z,99360.56
2023-04-15T02:16:37.129Z,99353.66
2023-04-15T02:19:52.074Z,99348.38
2023-04-15T02:23:00.157Z,99356.81
2023-04-15T02:26:15.091Z,99371.22
2023-04-15T02:29:16.998Z,99367.50
2023-04-15T02:32:32.172Z,99377.06
2023-04-15T02:35:41.086Z,99377.56
2023-04-15T02:38:49.766Z,99366.13
2023-04-15T02:41:58.312Z,99369.13
2023-04-15T02:45:07.554Z,99368.22
2023-04-15T02:48:22.089Z,99374.84
2023-04-15T02:51:31.163Z,99370.03
2023-04-15T02:54:46.095Z,99367.38
2023-04-15T02:57:48.014Z,99360.22
2023-04-15T03:01:10.132Z,99360.69
2023-04-15T03:04:12.108Z,99367.31
2023-04-15T03:07:27.075Z,99363.63
2023-04-15T03:10:29.025Z,99362.00
2023-04-15T03:13:44.079Z,99355.63
2023-04-15T03:16:52.625Z,99348.69
2023-04-15T03:20:09.151Z,99358.03
2023-04-15T03:23:24.061Z,99357.00
2023-04-15T03:26:32.692Z,99354.28
2023-04-15T03:29:42.068Z,99355.56
2023-04-15T03:32:50.703Z,99355.03
2023-04-15T03:36:05.078Z,99353.37
2023-04-15T03:39:13.892Z,99357.62
2023-04-15T03:42:23.241Z,99365.62
2023-04-15T03:45:31.774Z,99366.69
2023-04-15T03:48:40.074Z,99352.66
2023-04-15T03:51:55.118Z,99366.47
2023-04-15T03:54:57.051Z,99353.78
2023-04-15T03:58:12.076Z,99364.66
2023-04-15T04:01:27.329Z,99366.28
2023-04-15T04:04:42.115Z,99360.69
2023-04-15T04:07:44.122Z,99356.94
2023-04-15T04:10:59.117Z,99357.72
2023-04-15T04:14:01.019Z,99347.63
2023-04-15T04:17:16.094Z,99361.91
2023-04-15T04:20:17.996Z,99360.06
2023-04-15T04:23:34.089Z,99359.78
2023-04-15T04:26:49.068Z,99352.56
2023-04-15T04:30:04.189Z,99366.13
2023-04-15T04:33:07.261Z,99363.97
2023-04-15T04:36:22.102Z,99354.88
2023-04-15T04:39:30.776Z,99365.47
2023-04-15T04:42:46.089Z,99356.38
2023-04-15T04:45:54.663Z,99356.88
2023-04-15T04:49:03.248Z,99342.91
2023-04-15T04:52:12.066Z,99361.91
2023-04-15T04:55:27.073Z,99355.84
2023-04-15T04:58:35.069Z,99368.50
2023-04-15T05:01:51.068Z,99364.75
2023-04-15T05:04:59.649Z,99354.31
2023-04-15T05:08:08.075Z,99364.62
2023-04-15T05:11:16.703Z,99351.94
2023-04-15T05:14:31.086Z,99361.53
2023-04-15T05:17:39.726Z,99356.47
2023-04-15T05:20:55.061Z,99365.69
2023-04-15T05:24:04.067Z,99369.59
2023-04-15T05:27:26.097Z,99376.44
2023-04-15T05:30:34.911Z,99373.63
2023-04-15T05:33:50.065Z,99374.50
2023-04-15T05:36:52.124Z,99378.47
2023-04-15T05:40:07.059Z,99381.41
2023-04-15T05:43:09.088Z,99384.06
2023-04-15T05:46:27.104Z,99388.34
2023-04-15T05:49:29.155Z,99384.22
2023-04-15T05:52:44.064Z,99394.16
2023-04-15T05:55:53.082Z,99393.59
2023-04-15T05:59:15.077Z,99389.13
2023-04-15T06:02:30.179Z,99392.13
2023-04-15T06:05:38.651Z,99398.69
2023-04-15T06:08:53.088Z,99398.53
2023-04-15T06:12:02.073Z,99396.66
2023-04-15T06:15:11.084Z,99394.22
2023-04-15T06:18:26.092Z,99388.50
2023-04-15T06:21:34.744Z,99404.63
2023-04-15T06:24:49.048Z,99404.53
2023-04-15T06:27:50.938Z,99407.91
2023-04-15T06:31:07.121Z,99411.59
2023-04-15T06:34:09.044Z,99427.31
2023-04-15T06:37:24.063Z,99416.22
2023-04-15T06:40:32.710Z,99420.97
2023-04-15T06:43:41.067Z,99425.84
2023-04-15T06:46:49.641Z,99432.25
2023-04-15T06:49:58.083Z,99432.84
2023-04-15T06:53:13.093Z,99436.03
2023-04-15T06:56:22.107Z,99433.03
2023-04-15T06:59:44.067Z,99431.66
2023-04-15T07:02:59.088Z,99410.69
2023-04-15T07:06:07.703Z,99433.75
2023-04-15T07:09:22.066Z,99434.66
2023-04-15T07:12:23.956Z,99432.72
2023-04-15T07:15:41.573Z,99435.66
2023-04-15T07:18:50.259Z,99434.03
2023-04-15T07:21:59.071Z,99435.38
2023-04-15T07:25:08.229Z,99439.00
2023-04-15T07:28:17.070Z,99438.47
2023-04-15T07:31:25.742Z,99430.66
2023-04-15T07:34:41.086Z,99430.59
2023-04-15T07:37:42.950Z,99432.56
2023-04-15T07:40:58.111Z,99441.56
2023-04-15T07:44:13.155Z,99443.31
2023-04-15T07:47:21.659Z,99436.28
2023-04-15T07:50:36.076Z,99427.63
2023-04-15T07:53:51.097Z,99443.25
2023-04-15T07:57:06.060Z,99444.50
2023-04-15T08:00:08.547Z,99439.47
2023-04-15T08:03:30.162Z,99437.34
2023-04-15T08:06:32.638Z,99441.28
2023-04-15T08:09:47.060Z,99435.81
2023-04-15T08:12:48.935Z,99440.97
2023-04-15T08:16:26.082Z,99444.06
2023-04-15T08:19:28.139Z,99446.00
2023-04-15T08:22:43.102Z,99445.94
2023-04-15T08:25:58.067Z,99455.31
2023-04-15T08:29:00.641Z,99464.47
2023-04-15T08:32:16.062Z,99459.37
2023-04-15T08:35:24.664Z,99460.06
2023-04-15T08:38:42.088Z,99455.31
2023-04-15T08:42:08.097Z,99463.22
2023-04-15T08:45:12.724Z,99460.50
2023-04-15T08:48:31.093Z,99462.44
2023-04-15T08:51:33.184Z,99466.50
2023-04-15T08:54:49.093Z,99464.50
2023-04-15T08:57:57.686Z,99469.84
2023-04-15T09:01:06.067Z,99474.91
2023-04-15T09:04:21.091Z,99472.69
2023-04-15T09:07:22.980Z,99472.50
2023-04-15T09:10:39.098Z,99479.94
2023-04-15T09:13:47.851Z,99472.66
2023-04-15T09:17:10.100Z,99479.44
2023-04-15T09:20:18.834Z,99475.78
2023-04-15T09:23:27.097Z,99476.56
2023-04-15T09:26:38.025Z,99483.37
2023-04-15T09:29:57.144Z,99474.63
2023-04-15T09:33:04.358Z,99474.28
2023-04-15T09:36:19.098Z,99474.72
2023-04-15T09:39:21.040Z,99476.41
2023-04-15T09:42:36.083Z,99482.16
2023-04-15T09:45:52.740Z,99476.66
2023-04-15T09:49:18.135Z,99484.66
2023-04-15T09:52:27.016Z,99481.19
2023-04-15T09:55:42.088Z,99484.22
2023-04-15T09:58:51.119Z,99483.25
2023-04-15T10:02:13.167Z,99498.09
2023-04-15T10:05:22.095Z,99482.31
2023-04-15T10:08:40.077Z,99477.06
2023-04-15T10:11:57.095Z,99480.03
2023-04-15T10:15:03.193Z,99490.66
2023-04-15T10:18:22.112Z,99492.59
2023-04-15T10:21:31.093Z,99484.84
2023-04-15T10:24:40.764Z,99502.38
2023-04-15T10:27:57.080Z,99497.81
2023-04-15T10:31:06.086Z,99497.78
2023-04-15T10:34:15.832Z,99500.19
2023-04-15T10:37:45.095Z,99495.44
2023-04-15T10:40:54.089Z,99499.41
2023-04-15T10:44:05.037Z,99495.53
2023-04-15T10:47:26.125Z,99499.91
2023-04-15T10:50:31.893Z,99505.81
2023-04-15T10:53:52.135Z,99505.84
2023-04-15T10:57:00.609Z,99503.34
2023-04-15T11:00:20.075Z,99517.91
2023-04-15T11:03:45.245Z,99509.03
2023-04-15T11:07:12.087Z,99519.56
2023-04-15T11:10:27.112Z,99526.13
2023-04-15T11:13:36.080Z,99531.38
2023-04-15T11:16:44.991Z,99524.66
2023-04-15T11:20:01.110Z,99530.81
2023-04-15T11:23:14.591Z,99524.03
2023-04-15T11:26:33.103Z,99526.09
2023-04-15T11:29:41.828Z,99531.62
2023-04-15T11:33:02.211Z,99523.56
2023-04-15T11:36:04.518Z,99525.16
2023-04-15T11:39:19.110Z,99516.31
2023-04-15T11:42:36.216Z,99517.09
2023-04-15T11:46:06.112Z,99520.09
2023-04-15T11:49:36.097Z,99531.00
2023-04-15T11:52:45.115Z,99527.38
2023-04-15T11:55:54.114Z,99512.53
2023-04-15T11:59:10.084Z,99525.00
2023-04-15T12:02:25.304Z,99532.44
2023-04-15T12:05:33.695Z,99539.22
2023-04-15T12:08:55.110Z,99542.09
2023-04-15T12:12:10.096Z,99535.91
2023-04-15T12:15:49.640Z,99523.09
2023-04-15T12:19:06.082Z,99535.44
2023-04-15T12:22:23.090Z,99519.16
2023-04-15T12:25:35.571Z,99533.12
2023-04-15T12:28:47.103Z,99537.59
2023-04-15T12:32:05.136Z,99543.19
2023-04-15T12:35:14.105Z,99549.47
2023-04-15T12:38:29.120Z,99542.38
2023-04-15T12:41:37.711Z,99541.56
2023-04-15T12:44:53.126Z,99538.13
2023-04-15T12:48:01.751Z,99543.34
2023-04-15T12:51:16.098Z,99542.56
2023-04-15T12:54:18.768Z,99550.00
2023-04-15T12:57:33.090Z,99553.13
2023-04-15T13:00:55.261Z,99552.37
2023-04-15T13:04:22.627Z,99554.25
2023-04-15T13:07:30.684Z,99557.72
2023-04-15T13:10:39.113Z,99558.19
2023-04-15T13:13:48.147Z,99557.41
2023-04-15T13:16:56.093Z,99564.53
2023-04-15T13:20:14.647Z,99554.56
2023-04-15T13:23:22.784Z,99569.38
2023-04-15T13:26:34.169Z,99562.12
2023-04-15T13:29:43.125Z,99560.41
2023-04-15T13:32:58.139Z,99561.03
2023-04-15T13:36:09.441Z,99562.16
2023-04-15T13:39:18.254Z,99568.03
2023-04-15T13:42:26.878Z,99565.78
2023-04-15T13:45:36.224Z,99564.84
2023-04-15T13:48:44.810Z,99567.03
2023-04-15T13:51:54.103Z,99569.84
2023-04-15T13:55:06.247Z,99572.88
2023-04-15T13:58:33.124Z,99574.59
2023-04-15T14:01:55.217Z,99537.09
2023-04-15T14:05:10.163Z,99580.63
2023-04-15T14:08:18.703Z,99567.37
2023-04-15T14:11:27.381Z,99580.66
2023-04-15T14:14:36.114Z,99586.50
2023-04-15T14:17:51.167Z,99580.50
2023-04-15T14:20:53.274Z,99584.59
2023-04-15T14:24:08.168Z,99589.44
2023-04-15T14:27:23.090Z,99589.72
2023-04-15T14:30:41.370Z,99596.22
2023-04-15T14:33:56.122Z,99596.06
2023-04-15T14:36:58.304Z,99597.66
2023-04-15T14:40:14.287Z,99601.16
2023-04-15T14:43:16.494Z,99607.31
2023-04-15T14:46:32.108Z,99602.91
2023-04-15T14:49:34.515Z,99605.59
2023-04-15T14:52:50.141Z,99608.78
2023-04-15T14:56:05.108Z,99597.19
2023-04-15T14:59:20.784Z,99623.16
2023-04-15T15:02:38.491Z,99617.63
2023-04-15T15:05:54.348Z,99617.00
2023-04-15T15:09:09.459Z,99620.81
2023-04-15T15:12:24.112Z,99620.31
2023-04-15T15:15:33.631Z,99616.66
2023-04-15T15:18:49.101Z,99627.13
2023-04-15T15:22:04.111Z,99630.41
2023-04-15T15:25:13.111Z,99622.47
2023-04-15T15:28:28.377Z,99632.88
2023-04-15T15:31:37.312Z,99637.06
2023-04-15T15:34:52.231Z,99634.63
2023-04-15T15:38:00.827Z,99647.56
2023-04-15T15:41:16.131Z,99650.50
2023-04-15T15:44:24.937Z,99655.50
2023-04-15T15:47:33.441Z,99660.88
2023-04-15T15:50:42.083Z,99661.84
2023-04-15T15:53:50.138Z,99672.44
2023-04-15T15:56:58.839Z,99673.78
2023-04-15T16:00:15.121Z,99681.66
2023-04-15T16:03:24.119Z,99690.13
2023-04-15T16:06:39.103Z,99692.94
2023-04-15T16:09:41.466Z,99692.56
2023-04-15T16:13:00.122Z,99695.38
2023-04-15T16:16:08.178Z,99694.50
2023-04-15T16:19:16.949Z,99697.81
2023-04-15T16:22:33.140Z,99691.97
2023-04-15T16:25:43.362Z,99677.00
2023-04-15T16:28:52.396Z,99697.31
2023-04-15T16:32:07.118Z,99691.97
2023-04-15T16:35:15.693Z,99693.03
2023-04-15T16:38:24.148Z,99692.62
2023-04-15T16:41:34.450Z,99692.62
2023-04-15T16:44:49.118Z,99691.75
2023-04-15T16:47:57.714Z,99689.56
2023-04-15T16:51:06.434Z,99694.84
2023-04-15T16:54:15.144Z,99716.09
2023-04-15T16:57:53.170Z,99717.69
2023-04-15T17:00:52.540Z,99725.84
2023-04-15T17:04:14.320Z,99729.72
2023-04-15T17:07:30.526Z,99733.00
2023-04-15T17:10:32.548Z,99740.25
2023-04-15T17:13:48.103Z,99748.91
2023-04-15T17:16:56.093Z,99735.69
2023-04-15T17:20:12.114Z,99749.41
2023-04-15T17:23:27.369Z,99756.16
2023-04-15T17:26:36.100Z,99748.94
2023-04-15T17:29:51.129Z,99748.53
2023-04-15T17:32:59.525Z,99758.72
2023-04-15T17:36:07.863Z,99768.34
2023-04-15T17:39:24.560Z,99769.81
2023-04-15T17:42:27.011Z,99773.41
2023-04-15T17:45:42.606Z,99784.41
2023-04-15T17:48:51.309Z,99787.97
2023-04-15T17:52:07.298Z,99781.13
2023-04-15T17:55:22.456Z,99785.38
2023-04-15T17:58:27.106Z,99794.03
2023-04-15T18:01:42.351Z,99795.19
2023-04-15T18:05:05.641Z,99787.03
2023-04-15T18:08:23.126Z,99803.41
2023-04-15T18:11:33.298Z,99794.00
2023-04-15T18:14:43.404Z,99815.63
2023-04-15T18:17:52.340Z,99811.63
2023-04-15T18:21:08.499Z,99799.19
2023-04-15T18:24:11.143Z,99818.16
2023-04-15T18:27:27.496Z,99818.25
2023-04-15T18:30:42.556Z,99809.84
2023-04-15T18:33:50.812Z,99829.50
2023-04-15T18:37:07.431Z,99840.75
2023-04-15T18:40:16.308Z,99846.44
2023-04-15T18:43:31.612Z,99854.81
2023-04-15T18:46:39.867Z,99856.69
2023-04-15T18:49:48.535Z,99866.69
2023-04-15T18:53:04.498Z,99857.28
2023-04-15T18:56:20.540Z,99873.78
2023-04-15T18:59:30.467Z,99885.03
2023-04-15T19:02:45.730Z,99887.75
2023-04-15T19:06:08.090Z,99879.94
2023-04-15T19:09:25.080Z,99896.19
2023-04-15T19:12:40.487Z,99886.81
2023-04-15T19:15:49.529Z,99908.09
2023-04-15T19:18:58.384Z,99910.25
2023-04-15T19:22:07.103Z,99911.91
2023-04-15T19:25:22.555Z,99918.41
2023-04-15T19:28:39.028Z,99936.28
2023-04-15T19:31:48.562Z,99930.97
2023-04-15T19:34:57.457Z,99931.53
2023-04-15T19:38:12.102Z,99931.56
2023-04-15T19:41:21.637Z,99935.34
2023-04-15T19:44:30.124Z,99943.38
2023-04-15T19:47:46.549Z,99946.25
2023-04-15T19:50:56.723Z,99951.56
2023-04-15T19:54:12.577Z,99953.41
2023-04-15T19:57:15.200Z,99952.66
2023-04-15T20:00:30.230Z,99950.25
2023-04-15T20:03:52.219Z,99954.47
2023-04-15T20:07:01.524Z,99948.06
2023-04-15T20:10:16.594Z,99957.66
2023-04-15T20:13:24.996Z,99958.75
2023-04-15T20:16:34.499Z,99963.03
2023-04-15T20:19:43.284Z,99960.88
2023-04-15T20:22:58.601Z,99957.75
2023-04-15T20:26:07.469Z,99960.88
2023-04-15T20:29:16.103Z,99955.03
2023-04-15T20:32:27.790Z,99962.47
2023-04-15T20:35:43.596Z,99963.56
2023-04-15T20:38:46.122Z,99966.72
2023-04-15T20:42:01.663Z,99968.84
2023-04-15T20:45:14.420Z,99968.56
2023-04-15T20:48:31.137Z,99974.41
2023-04-15T20:51:33.531Z,99982.16
2023-04-15T20:54:51.104Z,99977.38
2023-04-15T20:57:59.710Z,99981.62
2023-04-15T21:01:08.140Z,99968.91
2023-04-15T21:04:23.437Z,99981.47
2023-04-15T21:07:38.131Z,99995.66
2023-04-15T21:10:40.124Z,99998.63
2023-04-15T21:13:55.457Z,100007.44
2023-04-15T21:16:57.521Z,100012.31
2023-04-15T21:20:13.112Z,100011.28
2023-04-15T21:23:21.709Z,100013.75
2023-04-15T21:26:36.277Z,100022.56
2023-04-15T21:29:51.111Z,100018.06
2023-04-15T21:33:06.189Z,100006.16
2023-04-15T21:36:14.720Z,100021.34
2023-04-15T21:39:23.135Z,100031.75
2023-04-15T21:42:38.115Z,100033.63
2023-04-15T21:45:40.027Z,100034.44
2023-04-15T21:48:55.102Z,100032.63
2023-04-15T21:52:04.442Z,100038.78
2023-04-15T21:55:14.117Z,100046.81
2023-04-15T21:58:22.797Z,100028.72
2023-04-15T22:01:32.427Z,100038.56
2023-04-15T22:04:54.145Z,100043.09
2023-04-15T22:08:09.100Z,100040.44
2023-04-15T22:11:28.756Z,100039.34
2023-04-15T22:14:37.807Z,100038.56
2023-04-15T22:17:53.135Z,100046.03
2023-04-15T22:20:55.158Z,100040.44
2023-04-15T22:24:32.559Z,100039.41
2023-04-15T22:27:45.105Z,100050.03
2023-04-15T22:30:46.942Z,100047.09
2023-04-15T22:34:02.119Z,100047.88
2023-04-15T22:37:10.100Z,100046.25
2023-04-15T22:40:19.102Z,100052.66
2023-04-15T22:43:35.165Z,100047.63
2023-04-15T22:46:37.254Z,100049.00
2023-04-15T22:49:52.115Z,100063.44
2023-04-15T22:52:54.088Z,100058.63
2023-04-15T22:56:09.124Z,100057.59
2023-04-15T22:59:24.169Z,100049.31
2023-04-15T23:02:26.120Z,100061.19
2023-04-15T23:05:48.138Z,100062.47
2023-04-15T23:08:56.907Z,100064.34
2023-04-15T23:12:05.140Z,100054.75
2023-04-15T23:15:13.937Z,100061.44
2023-04-15T23:18:22.121Z,100061.69
2023-04-15T23:21:37.149Z,100060.09
2023-04-15T23:24:52.114Z,100050.19
2023-04-15T23:28:00.765Z,100053.16
2023-04-15T23:31:15.124Z,100064.63
2023-04-15T23:34:24.149Z,100067.34
2023-04-15T23:37:39.114Z,100074.03
2023-04-15T23:40:54.110Z,100082.03
2023-04-15T23:44:09.098Z,100079.91
2023-04-15T23:47:24.135Z,100079.41
2023-04-15T23:50:32.893Z,100075.97
2023-04-15T23:53:41.118Z,100088.75
2023-04-15T23:56:56.145Z,100083.22
2023-04-15T23:59:58.194Z,100076.28
